x

Western Hawaii - 205 Nm Sw Of Honolulu, Hi (51003) Wave Buoy

12:50am - Fri 26th Dec 2014 All times are HST. -10 hours from GMT.

  • Sig Wave height 7.9ft
  • Peak Period 11s
  • Average Period 7s
  • Wind
    13mph, 18mph gusts
  • Sea Temp 78°f
  • Air Temp 74°f
  • Sea Pressure 1011mb
  • Western  Hawaii - 205 Nm Sw Of Honolulu, Hi
  • Western  Hawaii - 205 Nm Sw Of Honolulu, Hi

More Historic Weather Station data

Upgrade to MSW Pro to gain access to the past 30 days of data for over 8000 Wavebouys and Weather Stations around the globe.

Join Pro

Comparision Forecast

View Surf forecast
   
Fri 12/26 12:50am 8ft 11s 7s 13 18 mph 1011mb 78f 74f
Thu 12/25 11:50pm 7ft 11s 6s 16 20 mph 1011mb 78f 74f
10:50pm 7.5ft 11s 7s 13 16 mph 1011.2mb 78f 74f
9:50pm 8ft 11s 7s 16 20 mph 1010.8mb 78f 75f
8:50pm 7.5ft 11s 7s 13 18 mph 1010.4mb 78f 75f
7:50pm 8ft 11s 7s 13 16 mph 1010mb 79f 75f
6:50pm 8ft 11s 7s 13 18 mph 1009.2mb 79f 75f
5:50pm 8ft 11s 7s 13 18 mph 1008.8mb 79f 76f
4:50pm 8.5ft 11s 8s 13 18 mph 1008.3mb 79f 76f
3:50pm 8.5ft 11s 8s 13 16 mph 1007.8mb 79f 76f
2:50pm 9ft 11s 8s 13 18 mph 1007.8mb 79f 76f
1:50pm 8.5ft 11s 8s 13 16 mph 1008.2mb 79f 76f
12:50pm 8ft 11s 8s 13 16 mph 1009.1mb 79f 76f
11:50am 8ft 11s 8s 13 18 mph 1010mb 78f 76f
10:50am 8.5ft 11s 8s 13 18 mph 1010.4mb 78f 75f
9:50am 8.5ft 11s 8s 13 18 mph 1010.6mb 78f 75f
8:50am 9ft 11s 8s 18 20 mph 1010.2mb 78f 75f
7:50am 9.5ft 11s 8s 16 20 mph 1009.7mb 78f 73f
6:50am 10ft 11s 8s 13 18 mph 1009.1mb 78f 75f
5:50am 9ft 11s 8s 4 11 mph 1009mb 78f 73f
4:50am 10ft 11s 8s 11 16 mph 1008.7mb 78f 74f
3:50am 9.5ft 11s 8s 9 13 mph 1008.6mb 78f 74f
2:50am 9ft 11s 8s 9 13 mph 1008.8mb 78f 75f
1:50am 9.5ft 11s 8s 11 13 mph 1009.5mb 78f 74f
12:50am 10.5ft 10s 8s 11 16 mph 1010mb 78f 75f
Wed 12/24 11:50pm 10ft 11s 8s 11 16 mph 1010.3mb 78f 75f
10:50pm 11ft 11s 8s 11 16 mph 1010.5mb 79f 75f
9:50pm 11ft 11s 8s 11 13 mph 1010.5mb 79f 75f
8:50pm 11ft 11s 8s 11 13 mph 1010.4mb 79f 75f
7:50pm 11ft 11s 8s 11 13 mph 1010.1mb 79f 75f
6:50pm 12ft 10s 9s 9 13 mph 1009.5mb 79f 75f
5:50pm 12ft 11s 8s 9 13 mph 1009mb 79f 75f
4:50pm 11ft 11s 8s 9 13 mph 1008.6mb 79f 76f
3:50pm 11ft 11s 8s 9 11 mph 1008.3mb 79f 75f
2:50pm 11.5ft 10s 8s 11 16 mph 1008.3mb 79f 75f
1:50pm 11ft 10s 8s 2 4 mph 1009.3mb 78f 73f
12:50pm 11ft 12s 8s 9 16 mph 1010.6mb 79f 69f
11:50am 11.5ft 10s 8s 16 20 mph 1011mb 79f 74f
10:50am 12ft 11s 8s 16 22 mph 1011.1mb 79f 74f
9:50am 12ft 11s 8s 16 18 mph 1011.5mb 79f 73f
8:50am 12ft 10s 8s 18 25 mph 1011mb 79f 73f
7:50am 11.5ft 11s 8s 16 20 mph 1010.4mb 79f 74f
6:50am 11.5ft 10s 8s 16 20 mph 1009.6mb 79f 74f
5:50am 11ft 12s 7s 16 20 mph 1009.2mb 79f 74f
4:50am 12ft 11s 7s 16 18 mph 1009.4mb 79f 74f
3:50am 12.5ft 11s 8s 16 20 mph 1009.2mb 79f 74f
2:50am 12.5ft 11s 8s 20 25 mph 1009.5mb 79f 74f
1:50am 11.5ft 10s 8s 16 20 mph 1010.2mb 79f 74f
12:50am 12.5ft 10s 7s 20 25 mph 1010.8mb 79f 74f
Tue 12/23 11:50pm 13ft 10s 7s 20 25 mph 1011.1mb 79f 74f
10:50pm 14ft 10s 8s 18 22 mph 1011.8mb 79f 72f
9:50pm 13ft 9s 7s 25 31 mph 1011.5mb 79f 72f
8:50pm 14ft 8s 7s 22 29 mph 1011.4mb 79f 73f
7:50pm 13ft 8s 7s 25 31 mph 1011.2mb 79f 73f
6:50pm 13ft 9s 7s 25 29 mph 1011mb 79f 73f
5:50pm 13ft 9s 7s 25 29 mph 1010.7mb 79f 73f
4:50pm 12.5ft 10s 7s 25 29 mph 1010.7mb 79f 73f
3:50pm 13.5ft 9s 7s 25 29 mph 1010.6mb 79f 73f
2:50pm 13ft 9s 7s 18 25 mph 1011.5mb 79f 69f
1:50pm 12.5ft 9s 7s 25 31 mph 1011.7mb 79f 73f
12:50pm 12ft 9s 7s 25 29 mph 1012.8mb 79f 74f
11:50am 12.5ft 9s 7s 25 31 mph 1013.9mb 79f 75f
10:50am 13.5ft 8s 7s 25 29 mph 1014.8mb 79f 75f
9:50am 12.5ft 14s 7s 27 31 mph 1014.7mb 79f 75f
8:50am 12.5ft 14s 7s 25 29 mph 1014.9mb 79f 75f
7:50am 13ft 9s 7s 27 36 mph 1014.2mb 79f 75f
6:50am 13ft 8s 7s 27 31 mph 1013.9mb 79f 73f
5:50am 14ft 11s 7s 27 34 mph 1013.6mb 79f 75f
4:50am 11.5ft 8s 7s 25 29 mph 1013.8mb 79f 75f
3:50am 12ft 9s 7s 29 36 mph 1014.1mb 79f 72f
2:50am 13ft 15s 7s 25 29 mph 1014.3mb 79f 75f
1:50am 14ft 8s 7s 27 31 mph 1014.8mb 79f 74f
12:50am 14.5ft 10s 7s 25 29 mph 1015.2mb 79f 74f
Mon 12/22 11:50pm 14ft 15s 7s 27 31 mph 1016.1mb 79f 72f
10:50pm 15.5ft 10s 8s 25 31 mph 1016.5mb 79f 75f
9:50pm 14ft 10s 7s 27 31 mph 1016.5mb 79f 73f
8:50pm 13.5ft 8s 7s 27 31 mph 1016.2mb 79f 76f
7:50pm 13ft 11s 7s 27 31 mph 1015.7mb 79f 75f
6:50pm 14ft 14s 8s 25 31 mph 1015.2mb 79f 74f
5:50pm 13.5ft 16s 7s 27 34 mph 1014.7mb 79f 75f
4:50pm 14.5ft 15s 8s 25 31 mph 1014.4mb 79f 73f
3:50pm 14.5ft 16s 8s 25 29 mph 1014.3mb 79f 73f
2:50pm 14ft 10s 8s 22 27 mph 1014.6mb 79f 73f
1:50pm 13.5ft 16s 8s 25 29 mph 1014.7mb 79f 74f
12:50pm 14ft 16s 8s 27 31 mph 1015.3mb 79f 74f